Time;durP1;ratioP1;P1;durP2;ratioP2;P2;SDS_P1;SDS_P2;PMS_P1;PMS_P2;Temp;Humidity;BMP_temperature;BMP_pressure;BME280_temperature;BME280_humidity;BME280_pressure;Samples;Min_cycle;Max_cycle;Signal;HPM_P1;HPM_P2
2021/08/19 00:00:26;;;;;;;1.60;1.23;;;14.60;57.20;;;;;;4990278;28;20630;-47
2021/08/19 00:02:58;;;;;;;1.55;1.20;;;14.60;57.20;;;;;;4991776;28;20276;-52
2021/08/19 00:05:28;;;;;;;1.30;0.95;;;14.60;57.20;;;;;;5004161;28;20243;-50
2021/08/19 00:07:59;;;;;;;1.20;1.10;;;14.70;57.10;;;;;;5002757;28;20268;-53
2021/08/19 00:10:31;;;;;;;2.38;1.05;;;14.70;57.20;;;;;;4990881;28;20232;-50
2021/08/19 00:13:02;;;;;;;2.22;1.05;;;14.70;57.20;;;;;;4991010;28;20279;-52
2021/08/19 00:15:34;;;;;;;1.38;1.00;;;14.80;57.30;;;;;;4990726;28;20224;-49
2021/08/19 00:18:11;;;;;;;1.20;0.90;;;14.80;57.40;;;;;;4991257;28;20217;-53
2021/08/19 00:20:42;;;;;;;1.20;0.90;;;14.90;57.40;;;;;;4990220;28;20201;-47
2021/08/19 00:23:13;;;;;;;1.10;0.90;;;14.90;57.20;;;;;;4990730;28;20288;-51
2021/08/19 00:25:43;;;;;;;1.23;0.90;;;15.00;57.20;;;;;;4989693;28;20213;-47
2021/08/19 00:28:14;;;;;;;3.20;1.02;;;15.00;57.00;;;;;;4990739;28;20225;-50
2021/08/19 00:30:49;;;;;;;1.13;0.70;;;15.10;57.00;;;;;;4991212;28;20248;-48
2021/08/19 00:33:20;;;;;;;0.80;0.80;;;15.10;56.90;;;;;;4991006;28;20378;-48
2021/08/19 00:35:50;;;;;;;1.20;0.90;;;15.20;56.80;;;;;;4990321;28;20635;-48
2021/08/19 00:38:21;;;;;;;2.05;0.85;;;15.20;56.80;;;;;;4982464;28;20713;-48
2021/08/19 00:40:51;;;;;;;0.90;0.70;;;15.20;56.60;;;;;;4990358;28;20688;-49
2021/08/19 00:43:22;;;;;;;1.23;0.90;;;15.30;56.60;;;;;;4990050;28;20280;-48
2021/08/19 00:45:56;;;;;;;1.02;0.93;;;15.30;56.40;;;;;;4990984;28;20670;-47
2021/08/19 00:48:26;;;;;;;0.80;0.80;;;15.30;56.30;;;;;;4989539;28;20208;-51
2021/08/19 00:50:56;;;;;;;1.08;0.80;;;15.30;56.10;;;;;;4990835;28;20264;-51
2021/08/19 00:53:27;;;;;;;1.23;0.90;;;15.40;56.10;;;;;;4989905;28;20650;-56
2021/08/19 00:55:57;;;;;;;0.70;0.68;;;15.40;55.90;;;;;;4990252;28;20255;-52
2021/08/19 00:58:29;;;;;;;0.80;0.77;;;15.40;55.80;;;;;;4990426;28;20233;-49
2021/08/19 01:01:01;;;;;;;1.83;0.77;;;15.50;55.70;;;;;;4989722;28;20229;-47
2021/08/19 01:03:31;;;;;;;0.88;0.73;;;15.50;55.60;;;;;;4990923;28;20234;-49
2021/08/19 01:06:02;;;;;;;0.77;0.60;;;15.60;55.50;;;;;;4990358;28;20233;-50
2021/08/19 01:08:33;;;;;;;0.75;0.75;;;15.60;55.30;;;;;;4989767;28;20237;-52
2021/08/19 01:11:04;;;;;;;0.85;0.60;;;15.60;55.20;;;;;;4990046;28;20670;-53
2021/08/19 01:13:36;;;;;;;0.70;0.68;;;15.70;55.20;;;;;;4990796;28;20316;-55
2021/08/19 01:16:09;;;;;;;1.33;0.65;;;15.70;55.10;;;;;;4989471;28;20232;-54
2021/08/19 01:18:43;;;;;;;0.80;0.70;;;15.70;55.10;;;;;;4990676;28;20657;-55
2021/08/19 01:21:14;;;;;;;0.95;0.63;;;15.80;54.90;;;;;;4990147;28;20243;-51
2021/08/19 01:23:44;;;;;;;0.88;0.68;;;15.80;54.80;;;;;;4990436;28;20236;-53
2021/08/19 01:26:19;;;;;;;1.00;0.68;;;15.80;54.80;;;;;;4990565;28;20709;-55
2021/08/19 01:28:55;;;;;;;0.77;0.75;;;15.80;54.70;;;;;;4988275;28;20292;-50
2021/08/19 01:31:26;;;;;;;0.50;0.50;;;15.90;54.60;;;;;;4970993;28;20197;-52
2021/08/19 01:33:57;;;;;;;0.40;0.40;;;15.90;54.50;;;;;;4970628;28;20313;-50
2021/08/19 01:36:27;;;;;;;1.13;0.63;;;15.90;54.40;;;;;;4970542;28;20253;-54
2021/08/19 01:38:57;;;;;;;0.80;0.60;;;15.90;54.30;;;;;;4989664;28;20233;-51
2021/08/19 01:41:38;;;;;;;0.68;0.50;;;16.00;54.20;;;;;;4993115;28;20229;-52
2021/08/19 01:44:18;;;;;;;0.50;0.50;;;16.00;54.10;;;;;;4973076;28;20289;-48
2021/08/19 01:46:52;;;;;;;0.70;0.60;;;16.00;54.00;;;;;;5013543;28;20256;-56
2021/08/19 01:49:23;;;;;;;0.47;0.47;;;16.10;53.90;;;;;;5012808;28;20564;-52
2021/08/19 01:51:53;;;;;;;0.40;0.40;;;16.10;53.80;;;;;;5013206;28;20691;-51
2021/08/19 01:54:24;;;;;;;0.57;0.50;;;16.10;53.80;;;;;;5012832;28;20315;-52
2021/08/19 01:56:54;;;;;;;1.27;0.52;;;16.20;53.80;;;;;;5013226;28;20252;-56
2021/08/19 01:59:28;;;;;;;0.65;0.60;;;16.20;53.70;;;;;;4994387;28;20237;-52
2021/08/19 02:01:58;;;;;;;0.47;0.40;;;16.20;53.70;;;;;;4992956;28;20240;-52
2021/08/19 02:04:28;;;;;;;0.50;0.50;;;16.20;53.60;;;;;;4993938;28;20241;-52
2021/08/19 02:06:59;;;;;;;0.40;0.40;;;16.30;53.60;;;;;;4993091;28;20252;-54
2021/08/19 02:09:29;;;;;;;0.50;0.50;;;16.30;53.60;;;;;;4974191;28;20242;-54
2021/08/19 02:12:00;;;;;;;0.40;0.40;;;16.30;53.50;;;;;;5012378;28;20284;-53
2021/08/19 02:14:32;;;;;;;0.60;0.30;;;16.40;53.50;;;;;;5006999;28;20308;-50
2021/08/19 02:17:02;;;;;;;1.05;0.30;;;16.40;53.40;;;;;;4992875;28;20256;-56
2021/08/19 02:19:33;;;;;;;0.55;0.45;;;16.40;53.30;;;;;;4993703;28;20233;-55
2021/08/19 02:22:03;;;;;;;0.43;0.43;;;16.40;53.30;;;;;;4993299;28;20317;-52
2021/08/19 02:24:37;;;;;;;0.85;0.40;;;16.50;53.30;;;;;;5011078;28;20274;-49
2021/08/19 02:27:08;;;;;;;0.40;0.40;;;16.50;53.30;;;;;;5012718;28;20249;-48
2021/08/19 02:29:40;;;;;;;0.40;0.40;;;16.60;53.30;;;;;;5012102;28;20200;-56
2021/08/19 02:32:11;;;;;;;0.50;0.30;;;16.60;53.10;;;;;;5011221;28;20236;-53
2021/08/19 02:34:41;;;;;;;0.30;0.30;;;16.70;53.10;;;;;;4992359;28;20320;-54
2021/08/19 02:37:12;;;;;;;0.30;0.30;;;16.70;53.00;;;;;;5003568;28;20256;-53
2021/08/19 02:39:42;;;;;;;0.40;0.40;;;16.70;52.90;;;;;;4992083;28;20240;-54
2021/08/19 02:42:13;;;;;;;0.30;0.30;;;16.70;52.90;;;;;;4992210;28;20202;-52
2021/08/19 02:44:45;;;;;;;0.30;0.30;;;16.80;52.90;;;;;;4991800;28;20261;-54
2021/08/19 02:47:15;;;;;;;0.30;0.30;;;16.80;52.80;;;;;;4992031;28;20253;-56
2021/08/19 02:49:47;;;;;;;0.40;0.40;;;16.90;52.90;;;;;;4991985;28;20239;-53
2021/08/19 02:52:24;;;;;;;0.40;0.40;;;16.90;52.80;;;;;;4990491;28;20555;-55
2021/08/19 02:54:54;;;;;;;0.20;0.20;;;16.90;52.70;;;;;;4992495;28;20680;-52
2021/08/19 02:57:25;;;;;;;0.30;0.30;;;17.00;52.80;;;;;;4990723;28;20268;-52
2021/08/19 02:59:57;;;;;;;0.30;0.30;;;17.00;52.80;;;;;;4992346;28;20344;-49
2021/08/19 03:02:27;;;;;;;0.30;0.30;;;17.10;52.80;;;;;;5009290;28;20197;-53
2021/08/19 03:04:58;;;;;;;0.20;0.20;;;17.10;52.80;;;;;;5011907;28;20243;-55
2021/08/19 03:07:29;;;;;;;0.40;0.40;;;17.10;52.70;;;;;;5007929;28;20261;-54
2021/08/19 03:09:59;;;;;;;0.30;0.30;;;17.20;52.70;;;;;;4992221;28;20572;-56
2021/08/19 03:12:29;;;;;;;0.30;0.30;;;17.20;52.70;;;;;;4991742;28;20693;-54
2021/08/19 03:15:02;;;;;;;0.40;0.30;;;17.20;52.70;;;;;;4991086;28;20239;-54
2021/08/19 03:17:33;;;;;;;0.40;0.40;;;17.30;52.70;;;;;;4991426;28;20350;-49
2021/08/19 03:20:04;;;;;;;0.20;0.20;;;17.30;52.70;;;;;;5019672;23;20319;-56
2021/08/19 03:22:34;;;;;;;0.40;0.40;;;17.40;52.80;;;;;;5011194;28;20310;-57
2021/08/19 03:25:07;;;;;;;0.30;0.30;;;17.40;52.60;;;;;;5011129;28;20232;-59
2021/08/19 03:27:37;;;;;;;0.32;0.32;;;17.40;52.60;;;;;;5011502;28;20571;-60
2021/08/19 03:30:11;;;;;;;0.25;0.25;;;17.50;52.60;;;;;;5010791;28;20616;-56
2021/08/19 03:32:42;;;;;;;0.20;0.20;;;17.50;52.60;;;;;;5011131;28;20715;-59
2021/08/19 03:35:13;;;;;;;0.45;0.30;;;17.50;52.50;;;;;;5010466;28;20758;-59
2021/08/19 03:37:43;;;;;;;0.30;0.30;;;17.60;52.40;;;;;;5011438;28;20759;-58
2021/08/19 03:40:15;;;;;;;0.30;0.30;;;17.70;52.30;;;;;;5011272;28;20223;-57
2021/08/19 03:42:46;;;;;;;0.30;0.30;;;17.70;52.20;;;;;;5009994;28;20625;-56
2021/08/19 03:45:19;;;;;;;0.20;0.20;;;17.70;52.10;;;;;;5010257;28;20737;-56
2021/08/19 03:47:49;;;;;;;0.20;0.20;;;17.80;52.10;;;;;;5011165;28;20231;-55
2021/08/19 03:50:20;;;;;;;0.30;0.30;;;17.80;52.10;;;;;;5011319;28;20296;-58
2021/08/19 03:52:51;;;;;;;0.30;0.30;;;17.90;52.10;;;;;;5010715;28;20243;-56
2021/08/19 03:55:22;;;;;;;0.20;0.20;;;17.90;52.10;;;;;;5010492;28;20376;-57
2021/08/19 03:57:52;;;;;;;0.35;0.30;;;17.90;52.10;;;;;;5011674;28;20554;-58
2021/08/19 04:00:25;;;;;;;0.32;0.32;;;17.90;52.10;;;;;;5011136;28;20247;-58
2021/08/19 04:02:55;;;;;;;0.20;0.20;;;18.00;52.10;;;;;;5011017;28;20200;-57
2021/08/19 04:05:26;;;;;;;0.20;0.20;;;18.00;52.10;;;;;;5011003;28;20619;-57
2021/08/19 04:07:56;;;;;;;0.20;0.20;;;18.00;52.20;;;;;;5009507;28;20252;-55
2021/08/19 04:10:27;;;;;;;0.45;0.45;;;18.10;52.30;;;;;;5010585;28;20232;-58
2021/08/19 04:12:57;;;;;;;0.30;0.30;;;18.10;52.30;;;;;;5010875;28;20288;-60
2021/08/19 04:15:29;;;;;;;0.30;0.30;;;18.10;52.20;;;;;;5009678;28;20275;-56
2021/08/19 04:20:27;;;;;;;0.40;0.38;;;18.20;52.20;;;;;;5007309;28;20197;-48
2021/08/19 04:22:58;;;;;;;1.02;0.40;;;18.20;52.20;;;;;;5010706;28;20243;-50
2021/08/19 04:25:28;;;;;;;0.30;0.30;;;18.30;52.20;;;;;;5009991;28;20224;-48
2021/08/19 04:27:59;;;;;;;0.35;0.30;;;18.30;52.20;;;;;;5011091;28;20259;-51
2021/08/19 04:30:31;;;;;;;0.30;0.30;;;18.30;52.10;;;;;;5010809;28;20239;-48
2021/08/19 04:33:01;;;;;;;0.30;0.30;;;18.30;52.10;;;;;;5010637;28;20236;-45
2021/08/19 04:35:32;;;;;;;0.30;0.30;;;18.40;52.10;;;;;;5009847;28;20243;-49
2021/08/19 04:38:03;;;;;;;0.30;0.30;;;18.40;52.10;;;;;;5009136;28;20235;-46
2021/08/19 04:40:33;;;;;;;0.30;0.30;;;18.40;52.20;;;;;;4999897;28;20273;-49
2021/08/19 04:43:04;;;;;;;0.25;0.25;;;18.50;52.20;;;;;;5002666;28;20224;-49
2021/08/19 04:45:36;;;;;;;0.43;0.40;;;18.50;52.20;;;;;;5011449;28;20232;-46
2021/08/19 04:48:07;;;;;;;0.30;0.30;;;18.50;52.00;;;;;;5010195;28;20691;-42
2021/08/19 04:50:37;;;;;;;0.28;0.28;;;18.50;51.80;;;;;;5009576;28;20358;-44
2021/08/19 04:53:08;;;;;;;0.30;0.30;;;18.50;51.70;;;;;;5010669;28;20224;-44
2021/08/19 04:55:38;;;;;;;0.75;0.30;;;18.60;51.60;;;;;;5010066;28;20258;-48
2021/08/19 04:58:08;;;;;;;0.65;0.40;;;18.60;51.60;;;;;;5010794;28;20263;-47
2021/08/19 05:00:41;;;;;;;0.30;0.30;;;18.60;51.40;;;;;;5009544;28;20205;-53
2021/08/19 05:03:11;;;;;;;0.30;0.30;;;18.60;51.10;;;;;;5010755;28;20232;-44
2021/08/19 05:05:41;;;;;;;1.48;0.30;;;18.60;51.20;;;;;;5010333;28;20265;-46
2021/08/19 05:08:12;;;;;;;2.35;0.50;;;18.60;51.10;;;;;;5009981;28;20710;-45
2021/08/19 05:10:42;;;;;;;1.42;0.40;;;18.60;51.10;;;;;;5009340;28;20655;-50
2021/08/19 05:13:13;;;;;;;0.63;0.40;;;18.60;51.00;;;;;;5008531;28;20717;-51
2021/08/19 05:15:45;;;;;;;1.50;0.55;;;18.60;50.90;;;;;;4994910;28;20678;-46
2021/08/19 05:18:15;;;;;;;1.23;0.40;;;18.60;50.90;;;;;;5007462;23;20508;-54
2021/08/19 05:20:46;;;;;;;0.68;0.40;;;18.70;51.00;;;;;;5014736;28;20709;-54
2021/08/19 05:23:16;;;;;;;0.30;0.30;;;18.60;51.00;;;;;;4997868;28;20240;-52
2021/08/19 05:25:47;;;;;;;0.40;0.40;;;18.60;50.90;;;;;;4995120;28;20233;-49
2021/08/19 05:28:17;;;;;;;0.28;0.28;;;18.60;50.80;;;;;;4995031;28;20291;-52
2021/08/19 05:30:49;;;;;;;0.30;0.30;;;18.60;50.80;;;;;;5012725;28;20739;-56
2021/08/19 05:33:20;;;;;;;0.40;0.40;;;18.60;50.80;;;;;;5014350;28;20287;-54
2021/08/19 05:35:50;;;;;;;0.40;0.40;;;18.60;50.90;;;;;;5014270;28;20283;-52
2021/08/19 05:38:21;;;;;;;0.43;0.38;;;18.60;51.00;;;;;;5013702;28;20263;-52
2021/08/19 05:40:51;;;;;;;0.57;0.32;;;18.60;51.10;;;;;;5014120;28;20286;-53
2021/08/19 05:43:22;;;;;;;1.20;0.50;;;18.60;51.30;;;;;;4999042;28;20225;-54
2021/08/19 05:45:54;;;;;;;2.25;0.60;;;18.60;51.30;;;;;;4993733;28;20283;-53
2021/08/19 05:48:24;;;;;;;1.13;0.50;;;18.60;51.20;;;;;;4993701;28;20313;-51
2021/08/19 05:50:55;;;;;;;1.38;0.40;;;18.60;51.30;;;;;;4993275;28;20291;-54
2021/08/19 05:53:25;;;;;;;0.20;0.20;;;18.60;51.30;;;;;;5012591;28;20284;-53
2021/08/19 05:55:55;;;;;;;0.40;0.40;;;18.60;51.30;;;;;;5013815;28;20232;-52
2021/08/19 05:58:26;;;;;;;0.57;0.40;;;18.50;51.20;;;;;;5013639;28;20308;-48
2021/08/19 06:00:58;;;;;;;2.65;0.50;;;18.60;51.30;;;;;;5013422;28;20232;-50
2021/08/19 06:03:29;;;;;;;0.47;0.40;;;18.50;51.20;;;;;;5013309;28;20235;-50
2021/08/19 06:05:59;;;;;;;0.75;0.45;;;18.50;51.20;;;;;;5013480;28;20641;-48
2021/08/19 06:08:29;;;;;;;0.55;0.43;;;18.50;51.30;;;;;;5013179;28;20619;-54
2021/08/19 06:11:00;;;;;;;0.60;0.40;;;18.50;51.30;;;;;;5011993;28;20232;-52
2021/08/19 06:13:30;;;;;;;0.47;0.40;;;18.50;51.30;;;;;;5012116;28;20243;-49
2021/08/19 06:16:03;;;;;;;0.50;0.50;;;18.40;51.50;;;;;;5012661;28;20255;-51
2021/08/19 06:18:33;;;;;;;1.85;0.50;;;18.40;51.50;;;;;;4992562;28;20244;-51
2021/08/19 06:21:03;;;;;;;1.02;0.50;;;18.40;51.50;;;;;;4993096;28;20685;-52
2021/08/19 06:23:34;;;;;;;0.70;0.50;;;18.40;51.60;;;;;;4992458;28;20236;-50
2021/08/19 06:26:04;;;;;;;1.55;0.50;;;18.40;51.60;;;;;;4992433;28;20237;-51
2021/08/19 06:28:35;;;;;;;0.80;0.50;;;18.30;51.60;;;;;;4993595;28;20236;-54
2021/08/19 06:31:07;;;;;;;1.00;0.50;;;18.30;51.60;;;;;;4991875;28;20232;-49
2021/08/19 06:33:37;;;;;;;1.95;0.82;;;18.30;51.70;;;;;;4992443;28;20290;-53
2021/08/19 06:36:08;;;;;;;0.90;0.70;;;18.40;51.70;;;;;;4992163;28;20731;-52
2021/08/19 06:38:39;;;;;;;1.75;0.60;;;18.30;51.80;;;;;;5006738;28;20205;-53
2021/08/19 06:41:09;;;;;;;0.93;0.75;;;18.30;51.80;;;;;;4999048;28;20225;-52
2021/08/19 06:43:39;;;;;;;0.80;0.55;;;18.20;51.80;;;;;;5010071;28;20189;-52
2021/08/19 06:46:12;;;;;;;1.35;0.60;;;18.30;51.90;;;;;;5012447;28;20679;-49
2021/08/19 06:48:42;;;;;;;1.67;0.65;;;18.20;52.50;;;;;;5012084;28;20296;-52
2021/08/19 06:51:13;;;;;;;1.00;0.70;;;18.20;51.90;;;;;;5012188;28;20233;-53
2021/08/19 06:53:43;;;;;;;1.63;0.68;;;18.20;52.00;;;;;;5011543;28;20208;-55
2021/08/19 06:56:14;;;;;;;1.98;0.70;;;18.20;52.00;;;;;;5011019;28;20282;-51
2021/08/19 06:58:44;;;;;;;1.00;0.60;;;18.20;52.10;;;;;;5011865;28;20229;-53
2021/08/19 07:01:16;;;;;;;2.63;0.70;;;18.10;52.10;;;;;;5011560;28;20193;-50
2021/08/19 07:03:47;;;;;;;0.95;0.80;;;18.10;52.10;;;;;;5011881;28;20736;-51
2021/08/19 07:06:17;;;;;;;0.90;0.70;;;18.10;52.00;;;;;;5011878;28;20241;-52
2021/08/19 07:08:48;;;;;;;1.27;0.70;;;18.10;52.10;;;;;;5011519;28;20280;-53
2021/08/19 07:11:18;;;;;;;1.25;0.70;;;18.10;52.10;;;;;;5012185;28;20204;-52
2021/08/19 07:13:50;;;;;;;0.82;0.65;;;18.10;52.00;;;;;;5012327;28;20229;-54
2021/08/19 07:16:22;;;;;;;0.80;0.80;;;18.10;52.00;;;;;;5011878;28;20201;-53
2021/08/19 07:18:52;;;;;;;1.35;0.80;;;18.00;52.00;;;;;;5012386;28;20263;-55
2021/08/19 07:21:23;;;;;;;1.50;0.85;;;18.00;52.10;;;;;;5012285;28;20235;-52
2021/08/19 07:23:53;;;;;;;1.25;0.60;;;18.00;52.10;;;;;;5012138;28;20239;-50
2021/08/19 07:26:24;;;;;;;1.30;0.80;;;18.00;52.20;;;;;;5011864;28;20263;-51
2021/08/19 07:28:56;;;;;;;1.02;0.80;;;18.00;52.20;;;;;;5008589;28;20201;-52
2021/08/19 07:31:28;;;;;;;2.15;0.85;;;17.90;52.20;;;;;;5011629;28;20284;-52
2021/08/19 07:33:58;;;;;;;1.40;1.10;;;17.90;52.30;;;;;;5011645;28;20239;-51
2021/08/19 07:36:29;;;;;;;1.50;1.15;;;17.90;52.30;;;;;;5011327;28;20300;-50
2021/08/19 07:39:03;;;;;;;1.92;1.42;;;17.80;52.20;;;;;;5011671;28;20673;-54
2021/08/19 07:41:33;;;;;;;1.88;1.40;;;17.80;52.20;;;;;;5011715;28;20201;-50
2021/08/19 07:44:04;;;;;;;1.52;1.15;;;17.80;52.20;;;;;;4992189;28;20232;-52
2021/08/19 07:46:36;;;;;;;2.67;1.33;;;17.80;52.20;;;;;;4991835;28;20259;-51
2021/08/19 07:49:07;;;;;;;2.80;1.42;;;17.80;52.20;;;;;;4992120;28;20251;-49
2021/08/19 07:51:37;;;;;;;2.15;1.60;;;17.80;52.20;;;;;;4991740;28;20198;-52
2021/08/19 07:54:07;;;;;;;2.38;1.50;;;17.70;52.20;;;;;;4991246;28;20288;-54
2021/08/19 07:56:38;;;;;;;3.20;1.63;;;17.70;52.10;;;;;;4991920;28;20221;-53
2021/08/19 07:59:08;;;;;;;2.75;1.80;;;17.70;52.20;;;;;;4991633;28;20232;-55
2021/08/19 08:01:40;;;;;;;3.92;3.13;;;17.70;52.20;;;;;;4991225;28;20232;-54
2021/08/19 08:04:11;;;;;;;7.22;4.40;;;17.70;52.30;;;;;;4991187;28;20251;-53
2021/08/19 08:06:41;;;;;;;5.75;3.85;;;17.70;52.50;;;;;;4991468;28;20315;-56
2021/08/19 08:09:12;;;;;;;10.30;5.13;;;17.70;52.60;;;;;;5009346;28;20232;-52
2021/08/19 08:11:42;;;;;;;7.38;4.93;;;17.70;52.70;;;;;;5011249;28;20432;-51
2021/08/19 08:14:13;;;;;;;5.53;4.38;;;17.70;52.90;;;;;;5011148;28;20236;-48
2021/08/19 08:16:45;;;;;;;5.53;4.18;;;17.60;52.90;;;;;;5011506;28;20255;-52
2021/08/19 08:19:16;;;;;;;10.35;4.18;;;17.60;52.90;;;;;;5011824;28;20243;-53
2021/08/19 08:21:46;;;;;;;6.13;3.65;;;17.60;53.00;;;;;;5011444;28;20649;-55
2021/08/19 08:24:17;;;;;;;6.47;4.15;;;17.50;52.90;;;;;;5011632;28;20688;-54
2021/08/19 08:26:47;;;;;;;6.45;4.43;;;17.60;52.90;;;;;;5011212;28;20267;-51
2021/08/19 08:29:19;;;;;;;5.13;3.83;;;17.60;52.90;;;;;;5010629;28;20297;-54
2021/08/19 08:31:51;;;;;;;4.63;3.83;;;17.60;52.90;;;;;;5010794;28;20200;-53
2021/08/19 08:34:23;;;;;;;7.13;4.57;;;17.50;52.80;;;;;;5010847;28;20239;-54
2021/08/19 08:36:53;;;;;;;4.97;4.13;;;17.50;52.80;;;;;;5005790;28;20216;-54
2021/08/19 08:39:25;;;;;;;6.00;4.20;;;17.50;52.80;;;;;;5010507;28;20243;-54
2021/08/19 08:41:57;;;;;;;5.75;4.00;;;17.50;52.80;;;;;;5011192;28;20251;-55
2021/08/19 08:44:28;;;;;;;5.10;3.88;;;17.40;52.80;;;;;;5010464;28;20229;-55
2021/08/19 08:47:00;;;;;;;5.47;3.67;;;17.40;52.80;;;;;;5013231;28;20223;-52
2021/08/19 08:49:31;;;;;;;5.82;3.97;;;17.40;52.80;;;;;;5015386;28;20231;-55
2021/08/19 08:52:01;;;;;;;7.35;4.63;;;17.40;52.80;;;;;;5015639;28;20239;-56
2021/08/19 08:54:32;;;;;;;6.35;3.90;;;17.40;52.80;;;;;;5015219;28;20709;-56
2021/08/19 08:57:02;;;;;;;6.25;4.22;;;17.40;52.80;;;;;;5014541;28;20704;-54
2021/08/19 08:59:33;;;;;;;6.30;4.75;;;17.40;53.50;;;;;;5014172;28;20540;-54
2021/08/19 09:02:05;;;;;;;5.38;3.92;;;17.40;52.90;;;;;;5014666;28;20236;-50
2021/08/19 09:04:36;;;;;;;5.00;3.67;;;17.30;52.80;;;;;;5014276;28;20234;-55
2021/08/19 09:07:07;;;;;;;6.20;4.65;;;17.30;52.80;;;;;;5013929;28;20255;-55
2021/08/19 09:09:38;;;;;;;5.38;4.05;;;17.30;52.80;;;;;;5014202;28;20680;-53
2021/08/19 09:12:09;;;;;;;6.15;4.50;;;17.30;52.80;;;;;;5014193;28;20232;-54
2021/08/19 09:14:42;;;;;;;6.15;4.15;;;17.30;52.80;;;;;;5014163;28;20231;-50
2021/08/19 09:17:15;;;;;;;4.63;4.10;;;17.30;52.80;;;;;;5014370;28;20571;-52
2021/08/19 09:19:45;;;;;;;5.10;4.40;;;17.30;52.80;;;;;;5006161;28;20662;-52
2021/08/19 09:22:15;;;;;;;6.15;4.05;;;17.20;52.80;;;;;;5012348;28;20740;-54
2021/08/19 09:24:46;;;;;;;6.43;4.13;;;17.20;52.80;;;;;;5014705;28;20661;-49
2021/08/19 09:27:17;;;;;;;6.40;4.72;;;17.20;52.80;;;;;;5008291;28;20693;-50
2021/08/19 09:29:48;;;;;;;5.45;4.13;;;17.20;52.80;;;;;;4994149;28;20790;-55
2021/08/19 09:32:22;;;;;;;5.75;3.90;;;17.10;52.80;;;;;;4994221;28;20201;-54
2021/08/19 09:34:53;;;;;;;5.22;4.03;;;17.10;53.40;;;;;;4994333;28;20289;-53
2021/08/19 09:37:23;;;;;;;6.18;4.15;;;17.10;52.80;;;;;;4997102;28;20312;-50
2021/08/19 09:39:58;;;;;;;6.85;4.28;;;17.10;53.00;;;;;;5014341;28;20284;-55
2021/08/19 09:42:38;;;;;;;6.47;4.65;;;17.10;53.00;;;;;;4994724;28;20279;-48
2021/08/19 09:45:20;;;;;;;6.03;4.53;;;17.10;53.00;;;;;;4993769;28;20224;-52
2021/08/19 09:47:53;;;;;;;6.38;3.92;;;17.10;53.10;;;;;;4993910;28;20724;-52
2021/08/19 09:50:23;;;;;;;9.60;4.40;;;17.10;53.10;;;;;;4993992;28;20662;-51
2021/08/19 09:52:54;;;;;;;4.47;3.70;;;17.10;53.10;;;;;;4994220;28;20233;-51
2021/08/19 09:55:29;;;;;;;7.03;4.13;;;17.00;53.10;;;;;;4993599;28;20268;-52
2021/08/19 09:58:00;;;;;;;6.40;4.07;;;17.00;53.10;;;;;;4992398;28;20256;-48
2021/08/19 10:00:31;;;;;;;9.05;4.15;;;17.00;53.10;;;;;;5009669;28;20699;-53
2021/08/19 10:03:03;;;;;;;4.93;3.65;;;17.00;53.10;;;;;;5011127;28;20207;-52
2021/08/19 10:05:34;;;;;;;5.80;4.03;;;17.00;53.10;;;;;;4998787;28;20240;-52
2021/08/19 10:08:07;;;;;;;5.82;3.92;;;17.00;53.10;;;;;;5000737;28;20299;-52
2021/08/19 10:10:38;;;;;;;4.40;3.60;;;17.00;53.20;;;;;;5008630;28;20585;-56
2021/08/19 10:13:08;;;;;;;7.60;3.97;;;17.00;53.10;;;;;;4991303;28;20198;-51
2021/08/19 10:15:39;;;;;;;7.22;3.67;;;16.90;53.10;;;;;;5001996;28;20260;-53
2021/08/19 10:18:20;;;;;;;7.88;4.30;;;16.90;53.20;;;;;;5008556;28;20304;-54
2021/08/19 10:20:56;;;;;;;7.38;4.10;;;16.90;53.20;;;;;;5005343;28;20296;-51
2021/08/19 10:23:26;;;;;;;6.82;4.15;;;16.90;53.20;;;;;;4993092;28;20236;-52
2021/08/19 10:26:07;;;;;;;6.57;4.68;;;16.90;53.20;;;;;;5011630;28;20236;-53
2021/08/19 10:28:48;;;;;;;7.15;4.03;;;16.90;53.20;;;;;;5013343;28;20200;-50
2021/08/19 10:31:56;;;;;;;6.68;4.47;;;16.90;53.20;;;;;;5012221;28;20451;-49
2021/08/19 10:34:58;;;;;;;8.45;4.28;;;16.80;53.20;;;;;;5003197;28;20291;-52
2021/08/19 10:37:59;;;;;;;5.32;3.47;;;16.80;53.20;;;;;;5012805;28;20252;-54
2021/08/19 10:40:40;;;;;;;5.30;4.07;;;16.80;53.20;;;;;;5009078;28;20231;-54
2021/08/19 10:43:48;;;;;;;5.65;3.63;;;16.80;53.20;;;;;;4997196;28;20232;-50
2021/08/19 10:46:18;;;;;;;7.13;3.60;;;16.80;53.20;;;;;;4991854;28;20232;-54
2021/08/19 10:48:53;;;;;;;6.18;3.78;;;16.80;53.20;;;;;;4992834;28;20225;-53
2021/08/19 10:51:26;;;;;;;6.13;4.15;;;16.70;53.20;;;;;;4992808;28;20657;-55
2021/08/19 10:53:57;;;;;;;6.72;3.90;;;16.70;53.20;;;;;;4992970;28;20312;-51
2021/08/19 10:56:45;;;;;;;5.85;3.83;;;16.70;53.20;;;;;;4992666;28;20268;-56
2021/08/19 10:59:34;;;;;;;5.50;4.00;;;16.70;53.30;;;;;;4992842;28;20201;-55
2021/08/19 11:02:05;;;;;;;6.22;4.25;;;16.70;53.30;;;;;;4992577;28;20251;-55
2021/08/19 11:04:46;;;;;;;6.95;4.20;;;16.70;53.30;;;;;;4993019;28;20229;-55
2021/08/19 11:07:48;;;;;;;7.93;3.92;;;16.60;53.30;;;;;;4994941;28;20308;-53
2021/08/19 11:10:25;;;;;;;6.20;3.80;;;16.60;53.30;;;;;;4997236;28;20432;-53
2021/08/19 11:12:56;;;;;;;7.28;3.92;;;16.60;53.30;;;;;;5012755;28;20311;-52
2021/08/19 11:15:26;;;;;;;7.97;4.15;;;16.60;53.30;;;;;;5012110;28;20236;-52
2021/08/19 11:17:57;;;;;;;6.75;3.75;;;16.60;53.30;;;;;;5011714;28;20256;-50
2021/08/19 11:20:28;;;;;;;6.53;3.67;;;16.60;53.40;;;;;;5006813;28;20301;-54
2021/08/19 11:23:07;;;;;;;7.55;4.22;;;16.50;53.30;;;;;;5006600;28;20208;-50
2021/08/19 11:25:38;;;;;;;5.13;3.58;;;16.50;53.30;;;;;;4993923;28;20237;-50
2021/08/19 11:28:13;;;;;;;7.32;3.80;;;16.50;53.40;;;;;;4994061;28;20248;-50
2021/08/19 11:30:44;;;;;;;7.32;3.80;;;16.50;53.40;;;;;;4992513;28;20628;-55
2021/08/19 11:33:15;;;;;;;7.60;3.83;;;16.50;53.40;;;;;;4992188;28;20252;-55
2021/08/19 11:35:46;;;;;;;7.25;4.00;;;16.50;53.40;;;;;;4992245;28;20701;-50
2021/08/19 11:38:19;;;;;;;9.38;4.20;;;16.50;53.40;;;;;;5002516;28;20654;-54
2021/08/19 11:40:49;;;;;;;6.95;3.78;;;16.50;53.50;;;;;;5011690;28;20240;-53
2021/08/19 11:43:24;;;;;;;6.28;3.67;;;16.50;53.50;;;;;;5011544;28;20233;-49
2021/08/19 11:45:55;;;;;;;7.68;3.60;;;16.50;53.50;;;;;;5011009;28;20287;-53
2021/08/19 11:48:25;;;;;;;5.90;3.85;;;16.40;53.40;;;;;;5011673;28;20260;-54
2021/08/19 11:50:56;;;;;;;6.50;3.90;;;16.40;53.50;;;;;;5011529;28;20263;-55
2021/08/19 11:53:29;;;;;;;7.57;4.20;;;16.40;53.40;;;;;;5010972;28;20322;-54
2021/08/19 11:55:59;;;;;;;6.28;3.40;;;16.40;53.50;;;;;;5011133;28;20274;-56
2021/08/19 11:58:30;;;;;;;7.22;4.10;;;16.40;53.50;;;;;;5011467;28;20699;-55
2021/08/19 12:01:05;;;;;;;6.65;3.60;;;16.40;53.50;;;;;;5010601;28;20247;-55
2021/08/19 12:03:35;;;;;;;7.47;3.75;;;16.40;53.50;;;;;;5011087;28;20227;-52
2021/08/19 12:06:07;;;;;;;6.03;3.20;;;16.40;53.50;;;;;;5011006;28;20236;-53
2021/08/19 12:08:40;;;;;;;6.90;4.07;;;16.30;53.40;;;;;;5011311;28;20300;-54
2021/08/19 12:11:10;;;;;;;4.68;3.60;;;16.40;53.50;;;;;;5011515;28;20239;-52
2021/08/19 12:13:41;;;;;;;6.38;3.58;;;16.30;53.40;;;;;;5011585;28;20235;-52
2021/08/19 12:16:11;;;;;;;6.45;4.00;;;16.30;53.50;;;;;;5011446;28;20552;-55
2021/08/19 12:18:42;;;;;;;8.68;3.88;;;16.30;53.50;;;;;;5011762;28;20258;-54
2021/08/19 12:21:19;;;;;;;6.10;3.72;;;16.30;53.60;;;;;;5011077;28;20235;-54
2021/08/19 12:23:51;;;;;;;7.07;3.72;;;16.30;53.50;;;;;;5011212;28;20239;-54
2021/08/19 12:26:22;;;;;;;6.10;3.70;;;16.30;53.50;;;;;;5010908;28;20200;-54
2021/08/19 12:28:58;;;;;;;6.70;3.75;;;16.20;53.50;;;;;;5011451;28;20693;-53
2021/08/19 12:31:46;;;;;;;4.75;3.20;;;16.20;53.50;;;;;;5011668;28;20232;-54
2021/08/19 12:34:16;;;;;;;6.78;3.58;;;16.20;53.50;;;;;;5011660;28;20236;-55
2021/08/19 12:36:46;;;;;;;8.52;3.85;;;16.20;53.50;;;;;;5011564;28;20324;-55
2021/08/19 12:39:34;;;;;;;7.07;3.65;;;16.20;53.50;;;;;;5011214;28;20288;-51
2021/08/19 12:42:11;;;;;;;7.53;3.50;;;16.20;53.50;;;;;;5011052;28;20280;-53
2021/08/19 12:44:42;;;;;;;6.57;3.25;;;16.20;53.60;;;;;;5011391;28;20228;-55
2021/08/19 12:47:12;;;;;;;7.35;3.65;;;16.20;53.50;;;;;;5010621;28;20370;-50
2021/08/19 12:49:43;;;;;;;7.22;3.42;;;16.20;53.60;;;;;;5010617;28;20228;-52
2021/08/19 12:52:17;;;;;;;4.90;2.85;;;16.10;53.60;;;;;;4996776;28;20275;-55
2021/08/19 12:55:00;;;;;;;6.80;3.28;;;16.10;53.60;;;;;;4991255;28;20236;-53
2021/08/19 12:57:38;;;;;;;5.55;3.13;;;16.10;53.60;;;;;;4990925;28;20705;-51
2021/08/19 13:00:11;;;;;;;5.97;3.67;;;16.10;53.60;;;;;;4991105;28;20351;-53
2021/08/19 13:02:41;;;;;;;5.72;3.38;;;16.10;53.60;;;;;;4991101;28;20232;-53
2021/08/19 13:05:12;;;;;;;5.40;3.55;;;16.10;53.70;;;;;;4990922;28;20301;-53
2021/08/19 13:07:43;;;;;;;6.20;3.60;;;16.10;53.70;;;;;;4997167;28;20311;-53
2021/08/19 13:10:15;;;;;;;6.95;3.45;;;16.10;53.70;;;;;;5011316;28;20616;-54
2021/08/19 13:12:46;;;;;;;4.55;3.05;;;16.10;53.70;;;;;;5011178;28;20233;-53
2021/08/19 13:15:16;;;;;;;6.03;3.40;;;16.00;53.70;;;;;;5010544;28;20228;-54